sensor_id;sensor_type;location;lat;lon;timestamp;pressure;altitude;pressure_sealevel;temperature;humidity
54666;BME280;40566;50.006;36.180;2022-12-22T00:03:41;100088.13;;;1.48;77.54
54666;BME280;40566;50.006;36.180;2022-12-22T00:09:00;100080.31;;;1.39;77.66
54666;BME280;40566;50.006;36.180;2022-12-22T00:14:20;100085.34;;;1.33;77.81
54666;BME280;40566;50.006;36.180;2022-12-22T00:19:39;100080.88;;;1.19;78.00
54666;BME280;40566;50.006;36.180;2022-12-22T00:24:58;100068.75;;;1.05;78.47
54666;BME280;40566;50.006;36.180;2022-12-22T00:30:18;100066.81;;;0.90;78.60
54666;BME280;40566;50.006;36.180;2022-12-22T00:35:38;100067.47;;;0.78;78.82
54666;BME280;40566;50.006;36.180;2022-12-22T00:40:57;100046.97;;;0.70;79.02
54666;BME280;40566;50.006;36.180;2022-12-22T00:46:18;100019.69;;;0.62;79.30
54666;BME280;40566;50.006;36.180;2022-12-22T00:51:38;100020.53;;;0.62;79.23
54666;BME280;40566;50.006;36.180;2022-12-22T00:57:00;100014.59;;;0.63;79.24
54666;BME280;40566;50.006;36.180;2022-12-22T01:02:20;100002.75;;;0.64;79.35
54666;BME280;40566;50.006;36.180;2022-12-22T01:07:39;100002.72;;;0.62;79.43
54666;BME280;40566;50.006;36.180;2022-12-22T01:12:58;99999.25;;;0.58;79.49
54666;BME280;40566;50.006;36.180;2022-12-22T01:18:18;99999.22;;;0.57;79.58
54666;BME280;40566;50.006;36.180;2022-12-22T01:23:38;99991.56;;;0.54;79.60
54666;BME280;40566;50.006;36.180;2022-12-22T01:28:57;100008.53;;;0.55;79.70
54666;BME280;40566;50.006;36.180;2022-12-22T01:34:17;100009.41;;;0.57;79.67
54666;BME280;40566;50.006;36.180;2022-12-22T01:39:36;100015.53;;;0.68;79.40
54666;BME280;40566;50.006;36.180;2022-12-22T01:45:00;99991.78;;;0.68;79.37
54666;BME280;40566;50.006;36.180;2022-12-22T01:50:28;99997.75;;;0.70;79.25
54666;BME280;40566;50.006;36.180;2022-12-22T01:55:48;100002.06;;;0.74;79.43
54666;BME280;40566;50.006;36.180;2022-12-22T02:01:08;99995.38;;;0.79;79.24
54666;BME280;40566;50.006;36.180;2022-12-22T02:06:32;100009.91;;;0.88;79.12
54666;BME280;40566;50.006;36.180;2022-12-22T02:12:06;100016.03;;;0.99;78.89
54666;BME280;40566;50.006;36.180;2022-12-22T02:28:24;99993.22;;;1.05;78.83
54666;BME280;40566;50.006;36.180;2022-12-22T02:33:43;99999.22;;;1.10;78.70
54666;BME280;40566;50.006;36.180;2022-12-22T02:45:07;99988.91;;;1.01;78.96
54666;BME280;40566;50.006;36.180;2022-12-22T02:50:33;99982.78;;;0.90;79.31
54666;BME280;40566;50.006;36.180;2022-12-22T02:55:59;99980.97;;;0.81;79.54
54666;BME280;40566;50.006;36.180;2022-12-22T03:01:20;99986.22;;;0.92;79.43
54666;BME280;40566;50.006;36.180;2022-12-22T03:06:39;99966.63;;;0.88;79.47
54666;BME280;40566;50.006;36.180;2022-12-22T03:11:59;99966.59;;;0.86;79.53
54666;BME280;40566;50.006;36.180;2022-12-22T03:17:18;99967.41;;;0.84;79.66
54666;BME280;40566;50.006;36.180;2022-12-22T03:22:37;99963.16;;;0.83;79.90
54666;BME280;40566;50.006;36.180;2022-12-22T03:28:06;99951.28;;;0.83;79.76
54666;BME280;40566;50.006;36.180;2022-12-22T03:33:07;99950.44;;;0.84;79.80
54666;BME280;40566;50.006;36.180;2022-12-22T03:38:08;99947.81;;;0.78;80.04
54666;BME280;40566;50.006;36.180;2022-12-22T03:43:13;99950.38;;;0.79;80.16
54666;BME280;40566;50.006;36.180;2022-12-22T03:48:33;99960.63;;;0.84;80.13
54666;BME280;40566;50.006;36.180;2022-12-22T03:53:33;99959.00;;;0.88;80.09
54666;BME280;40566;50.006;36.180;2022-12-22T03:58:34;99960.81;;;0.95;79.98
54666;BME280;40566;50.006;36.180;2022-12-22T04:03:34;99962.44;;;0.91;79.98
54666;BME280;40566;50.006;36.180;2022-12-22T04:08:35;99958.13;;;0.86;80.16
54666;BME280;40566;50.006;36.180;2022-12-22T04:13:36;99977.56;;;0.82;80.42
54666;BME280;40566;50.006;36.180;2022-12-22T04:18:36;99967.34;;;0.79;80.57
54666;BME280;40566;50.006;36.180;2022-12-22T04:23:37;99972.44;;;0.81;80.55
54666;BME280;40566;50.006;36.180;2022-12-22T04:28:37;99962.28;;;0.82;80.34
54666;BME280;40566;50.006;36.180;2022-12-22T04:33:38;99960.59;;;0.81;80.43
54666;BME280;40566;50.006;36.180;2022-12-22T04:38:39;99966.56;;;0.85;80.53
54666;BME280;40566;50.006;36.180;2022-12-22T04:43:39;99964.81;;;0.81;80.55
54666;BME280;40566;50.006;36.180;2022-12-22T04:48:40;99970.00;;;0.85;80.53
54666;BME280;40566;50.006;36.180;2022-12-22T04:53:40;99982.66;;;0.82;80.86
54666;BME280;40566;50.006;36.180;2022-12-22T04:58:41;99985.22;;;0.82;80.94
54666;BME280;40566;50.006;36.180;2022-12-22T05:03:42;99977.53;;;0.81;80.97
54666;BME280;40566;50.006;36.180;2022-12-22T05:08:43;99992.88;;;0.84;81.11
54666;BME280;40566;50.006;36.180;2022-12-22T05:13:43;99993.78;;;0.87;81.06
54666;BME280;40566;50.006;36.180;2022-12-22T05:18:44;100005.78;;;0.96;81.04
54666;BME280;40566;50.006;36.180;2022-12-22T05:23:45;100006.72;;;1.03;80.95
54666;BME280;40566;50.006;36.180;2022-12-22T05:28:46;100007.59;;;1.05;81.04
54666;BME280;40566;50.006;36.180;2022-12-22T05:33:48;100011.13;;;1.11;81.02
54666;BME280;40566;50.006;36.180;2022-12-22T05:38:48;100013.78;;;1.19;80.96
54666;BME280;40566;50.006;36.180;2022-12-22T05:43:49;100013.03;;;1.25;80.81
54666;BME280;40566;50.006;36.180;2022-12-22T05:48:49;100026.66;;;1.27;80.80
54666;BME280;40566;50.006;36.180;2022-12-22T05:53:50;100019.06;;;1.31;80.78
54666;BME280;40566;50.006;36.180;2022-12-22T05:58:51;100011.53;;;1.41;80.95
54666;BME280;40566;50.006;36.180;2022-12-22T06:03:51;100015.84;;;1.45;81.06
54666;BME280;40566;50.006;36.180;2022-12-22T06:08:52;100017.53;;;1.46;81.12
54666;BME280;40566;50.006;36.180;2022-12-22T06:13:52;100016.75;;;1.48;81.29
54666;BME280;40566;50.006;36.180;2022-12-22T06:18:53;100019.34;;;1.53;81.27
54666;BME280;40566;50.006;36.180;2022-12-22T06:23:53;100027.91;;;1.59;81.13
54666;BME280;40566;50.006;36.180;2022-12-22T06:28:54;100021.97;;;1.59;81.38
54666;BME280;40566;50.006;36.180;2022-12-22T06:33:55;100022.03;;;1.64;81.35
54666;BME280;40566;50.006;36.180;2022-12-22T06:38:55;100020.34;;;1.66;81.40
54666;BME280;40566;50.006;36.180;2022-12-22T06:43:56;100019.59;;;1.73;81.52
54666;BME280;40566;50.006;36.180;2022-12-22T06:48:56;100019.66;;;1.77;81.54
54666;BME280;40566;50.006;36.180;2022-12-22T06:53:57;100030.78;;;1.84;81.68
54666;BME280;40566;50.006;36.180;2022-12-22T06:58:58;100026.66;;;1.94;81.38
54666;BME280;40566;50.006;36.180;2022-12-22T07:03:58;100019.00;;;1.95;81.37
54666;BME280;40566;50.006;36.180;2022-12-22T07:08:59;100030.13;;;1.97;81.40
54666;BME280;40566;50.006;36.180;2022-12-22T07:14:00;100019.13;;;2.05;81.57
54666;BME280;40566;50.006;36.180;2022-12-22T07:19:00;100033.69;;;2.13;81.66
54666;BME280;40566;50.006;36.180;2022-12-22T07:24:01;100023.53;;;2.20;81.57
54666;BME280;40566;50.006;36.180;2022-12-22T07:29:02;100025.31;;;2.28;81.49
54666;BME280;40566;50.006;36.180;2022-12-22T07:34:02;100025.38;;;2.34;81.59
54666;BME280;40566;50.006;36.180;2022-12-22T07:39:03;100029.72;;;2.42;81.60
54666;BME280;40566;50.006;36.180;2022-12-22T07:44:04;100019.56;;;2.48;81.84
54666;BME280;40566;50.006;36.180;2022-12-22T07:49:05;100012.88;;;2.59;81.65
54666;BME280;40566;50.006;36.180;2022-12-22T07:54:26;100012.06;;;2.66;81.89
54666;BME280;40566;50.006;36.180;2022-12-22T07:59:26;100004.44;;;2.72;81.97
54666;BME280;40566;50.006;36.180;2022-12-22T08:04:27;99990.03;;;2.79;82.22
54666;BME280;40566;50.006;36.180;2022-12-22T08:09:28;99999.41;;;2.82;82.30
54666;BME280;40566;50.006;36.180;2022-12-22T08:14:28;100005.41;;;2.84;82.42
54666;BME280;40566;50.006;36.180;2022-12-22T08:19:29;100000.28;;;2.84;82.53
54666;BME280;40566;50.006;36.180;2022-12-22T08:24:29;99999.41;;;2.82;82.59
54666;BME280;40566;50.006;36.180;2022-12-22T08:29:40;99990.06;;;2.81;82.81
54666;BME280;40566;50.006;36.180;2022-12-22T08:34:42;99991.78;;;2.83;82.86
54666;BME280;40566;50.006;36.180;2022-12-22T08:39:45;99984.13;;;2.85;83.11
54666;BME280;40566;50.006;36.180;2022-12-22T08:44:47;99978.19;;;2.87;82.93
54666;BME280;40566;50.006;36.180;2022-12-22T08:49:52;99979.94;;;2.93;82.90
54666;BME280;40566;50.006;36.180;2022-12-22T08:54:53;99975.69;;;2.95;82.91
54666;BME280;40566;50.006;36.180;2022-12-22T08:59:53;99954.41;;;2.97;82.86
54666;BME280;40566;50.006;36.180;2022-12-22T09:04:54;99951.88;;;3.02;83.11
54666;BME280;40566;50.006;36.180;2022-12-22T09:09:54;99945.09;;;3.07;83.02
54666;BME280;40566;50.006;36.180;2022-12-22T09:14:56;99934.94;;;3.16;82.75
54666;BME280;40566;50.006;36.180;2022-12-22T09:19:57;99930.72;;;3.29;82.69
54666;BME280;40566;50.006;36.180;2022-12-22T09:24:58;99935.00;;;3.35;82.65
54666;BME280;40566;50.006;36.180;2022-12-22T09:29:58;99931.59;;;3.33;82.75
54666;BME280;40566;50.006;36.180;2022-12-22T09:34:59;99931.63;;;3.36;82.61
54666;BME280;40566;50.006;36.180;2022-12-22T09:40:00;99923.94;;;3.36;82.67
54666;BME280;40566;50.006;36.180;2022-12-22T09:45:00;99906.91;;;3.41;82.59
54666;BME280;40566;50.006;36.180;2022-12-22T09:50:02;99909.50;;;3.44;82.64
54666;BME280;40566;50.006;36.180;2022-12-22T09:55:18;99910.34;;;3.45;82.69
54666;BME280;40566;50.006;36.180;2022-12-22T10:00:26;99901.81;;;3.47;82.71
54666;BME280;40566;50.006;36.180;2022-12-22T10:11:04;99898.44;;;3.54;82.48
54666;BME280;40566;50.006;36.180;2022-12-22T10:16:24;99895.88;;;3.56;82.55
54666;BME280;40566;50.006;36.180;2022-12-22T10:21:25;99899.28;;;3.56;82.55
54666;BME280;40566;50.006;36.180;2022-12-22T10:26:31;99895.03;;;3.52;82.64
54666;BME280;40566;50.006;36.180;2022-12-22T10:31:34;99903.56;;;3.57;82.63
54666;BME280;40566;50.006;36.180;2022-12-22T10:36:36;99901.88;;;3.60;82.69
54666;BME280;40566;50.006;36.180;2022-12-22T10:41:44;99893.34;;;3.62;82.61
54666;BME280;40566;50.006;36.180;2022-12-22T10:46:51;99886.53;;;3.64;82.46
54666;BME280;40566;50.006;36.180;2022-12-22T10:51:56;99889.97;;;3.68;82.48
54666;BME280;40566;50.006;36.180;2022-12-22T11:02:24;99878.88;;;3.66;82.43
54666;BME280;40566;50.006;36.180;2022-12-22T11:07:28;99872.06;;;3.69;82.43
54666;BME280;40566;50.006;36.180;2022-12-22T11:18:17;99879.72;;;3.77;82.28
54666;BME280;40566;50.006;36.180;2022-12-22T11:29:25;99889.13;;;3.80;82.30
54666;BME280;40566;50.006;36.180;2022-12-22T11:34:48;99890.00;;;3.83;82.27
54666;BME280;40566;50.006;36.180;2022-12-22T11:40:10;99872.94;;;3.85;82.29
54666;BME280;40566;50.006;36.180;2022-12-22T11:50:55;99872.94;;;3.91;82.24
54666;BME280;40566;50.006;36.180;2022-12-22T11:56:20;99876.34;;;3.90;82.13
54666;BME280;40566;50.006;36.180;2022-12-22T12:43:58;99878.03;;;3.93;82.08
54666;BME280;40566;50.006;36.180;2022-12-22T12:48:59;99892.56;;;3.95;82.15
54666;BME280;40566;50.006;36.180;2022-12-22T13:10:17;99885.72;;;3.94;82.21
54666;BME280;40566;50.006;36.180;2022-12-22T13:20:32;99872.09;;;3.98;82.15
54666;BME280;40566;50.006;36.180;2022-12-22T13:25:57;99883.16;;;3.93;81.99
54666;BME280;40566;50.006;36.180;2022-12-22T13:31:03;99881.50;;;3.95;82.06
54666;BME280;40566;50.006;36.180;2022-12-22T13:36:05;99884.88;;;3.92;82.26
54666;BME280;40566;50.006;36.180;2022-12-22T13:41:20;99882.31;;;3.91;82.05
54666;BME280;40566;50.006;36.180;2022-12-22T13:46:21;99884.88;;;3.92;82.25
54666;BME280;40566;50.006;36.180;2022-12-22T13:51:26;99879.78;;;3.97;82.01
54666;BME280;40566;50.006;36.180;2022-12-22T13:56:39;99875.50;;;3.97;82.03
54666;BME280;40566;50.006;36.180;2022-12-22T14:01:54;99873.78;;;3.98;81.89
54666;BME280;40566;50.006;36.180;2022-12-22T14:06:55;99877.22;;;3.95;81.99
54666;BME280;40566;50.006;36.180;2022-12-22T14:16:59;99880.63;;;3.97;82.14
54666;BME280;40566;50.006;36.180;2022-12-22T14:22:10;99872.94;;;3.91;82.11
54666;BME280;40566;50.006;36.180;2022-12-22T14:32:39;99875.50;;;3.90;82.08
54666;BME280;40566;50.006;36.180;2022-12-22T14:37:40;99884.03;;;3.96;81.91
54666;BME280;40566;50.006;36.180;2022-12-22T14:42:44;99872.91;;;3.93;81.95
54666;BME280;40566;50.006;36.180;2022-12-22T14:47:45;99884.88;;;3.92;82.13
54666;BME280;40566;50.006;36.180;2022-12-22T14:52:48;99882.34;;;3.95;81.94
54666;BME280;40566;50.006;36.180;2022-12-22T14:57:59;99878.91;;;3.96;81.85
54666;BME280;40566;50.006;36.180;2022-12-22T15:03:05;99869.53;;;3.94;82.04
54666;BME280;40566;50.006;36.180;2022-12-22T15:08:33;99875.47;;;3.93;82.01
54666;BME280;40566;50.006;36.180;2022-12-22T15:13:26;99869.53;;;3.95;81.98
54666;BME280;40566;50.006;36.180;2022-12-22T15:18:28;99874.66;;;3.95;81.96
54666;BME280;40566;50.006;36.180;2022-12-22T15:23:29;99878.06;;;3.99;81.79
54666;BME280;40566;50.006;36.180;2022-12-22T15:28:30;99878.06;;;4.01;81.86
54666;BME280;40566;50.006;36.180;2022-12-22T15:33:30;99868.69;;;4.00;81.90
54666;BME280;40566;50.006;36.180;2022-12-22T15:38:31;99875.50;;;3.96;81.75
54666;BME280;40566;50.006;36.180;2022-12-22T15:43:32;99873.81;;;3.93;81.99
54666;BME280;40566;50.006;36.180;2022-12-22T15:48:35;99858.47;;;3.95;81.80
54666;BME280;40566;50.006;36.180;2022-12-22T15:53:37;99871.22;;;3.89;81.92
54666;BME280;40566;50.006;36.180;2022-12-22T15:58:38;99872.91;;;3.87;81.88
54666;BME280;40566;50.006;36.180;2022-12-22T16:03:39;99881.47;;;3.86;81.97
54666;BME280;40566;50.006;36.180;2022-12-22T16:08:41;99879.75;;;3.85;81.84
54666;BME280;40566;50.006;36.180;2022-12-22T16:13:43;99872.94;;;3.77;81.95
54666;BME280;40566;50.006;36.180;2022-12-22T16:18:44;99878.88;;;3.73;82.15
54666;BME280;40566;50.006;36.180;2022-12-22T16:23:46;99869.47;;;3.71;82.13
54666;BME280;40566;50.006;36.180;2022-12-22T16:28:47;99872.03;;;3.71;82.31
54666;BME280;40566;50.006;36.180;2022-12-22T16:33:48;99876.31;;;3.70;82.36
54666;BME280;40566;50.006;36.180;2022-12-22T16:38:49;99886.56;;;3.73;82.07
54666;BME280;40566;50.006;36.180;2022-12-22T16:43:51;99883.97;;;3.75;81.98
54666;BME280;40566;50.006;36.180;2022-12-22T16:48:55;99882.31;;;3.80;81.98
54666;BME280;40566;50.006;36.180;2022-12-22T16:53:59;99884.00;;;3.83;81.70
54666;BME280;40566;50.006;36.180;2022-12-22T16:58:59;99889.13;;;3.86;81.79
54666;BME280;40566;50.006;36.180;2022-12-22T17:04:06;99888.28;;;3.84;81.84
54666;BME280;40566;50.006;36.180;2022-12-22T17:09:12;99881.44;;;3.84;81.66
54666;BME280;40566;50.006;36.180;2022-12-22T17:14:28;99892.56;;;3.92;81.66
54666;BME280;40566;50.006;36.180;2022-12-22T17:19:30;99886.59;;;3.87;81.65
54666;BME280;40566;50.006;36.180;2022-12-22T17:24:31;99875.47;;;3.82;81.79
54666;BME280;40566;50.006;36.180;2022-12-22T17:29:32;99885.75;;;3.91;81.74
54666;BME280;40566;50.006;36.180;2022-12-22T17:34:34;99884.88;;;3.86;81.67
54666;BME280;40566;50.006;36.180;2022-12-22T17:39:34;99886.56;;;3.84;81.78
54666;BME280;40566;50.006;36.180;2022-12-22T17:44:37;99889.97;;;3.86;81.86
54666;BME280;40566;50.006;36.180;2022-12-22T17:49:38;99885.72;;;3.85;81.66
54666;BME280;40566;50.006;36.180;2022-12-22T17:54:39;99890.84;;;3.88;81.74
54666;BME280;40566;50.006;36.180;2022-12-22T17:59:40;99887.44;;;3.86;81.64
54666;BME280;40566;50.006;36.180;2022-12-22T18:04:40;99889.13;;;3.84;81.82
54666;BME280;40566;50.006;36.180;2022-12-22T18:09:41;99894.22;;;3.78;81.86
54666;BME280;40566;50.006;36.180;2022-12-22T18:14:43;99885.69;;;3.76;81.87
54666;BME280;40566;50.006;36.180;2022-12-22T18:19:44;99888.25;;;3.76;81.98
54666;BME280;40566;50.006;36.180;2022-12-22T18:24:46;99884.84;;;3.72;81.99
54666;BME280;40566;50.006;36.180;2022-12-22T18:29:47;99883.16;;;3.71;81.89
54666;BME280;40566;50.006;36.180;2022-12-22T18:34:47;99876.31;;;3.69;82.04
54666;BME280;40566;50.006;36.180;2022-12-22T18:39:48;99867.81;;;3.71;81.90
54666;BME280;40566;50.006;36.180;2022-12-22T18:44:49;99871.19;;;3.70;81.94
54666;BME280;40566;50.006;36.180;2022-12-22T18:49:50;99878.00;;;3.65;81.99
54666;BME280;40566;50.006;36.180;2022-12-22T18:54:50;99883.13;;;3.64;81.98
54666;BME280;40566;50.006;36.180;2022-12-22T18:59:51;99881.38;;;3.61;82.00
54666;BME280;40566;50.006;36.180;2022-12-22T19:04:52;99882.25;;;3.60;82.17
54666;BME280;40566;50.006;36.180;2022-12-22T19:09:53;99863.50;;;3.56;82.19
54666;BME280;40566;50.006;36.180;2022-12-22T19:14:58;99876.28;;;3.56;82.20
54666;BME280;40566;50.006;36.180;2022-12-22T19:20:02;99877.97;;;3.59;82.04
54666;BME280;40566;50.006;36.180;2022-12-22T19:25:03;99869.47;;;3.55;82.07
54666;BME280;40566;50.006;36.180;2022-12-22T19:30:03;99876.28;;;3.56;82.18
54666;BME280;40566;50.006;36.180;2022-12-22T19:35:15;99873.72;;;3.55;82.09
54666;BME280;40566;50.006;36.180;2022-12-22T19:40:19;99874.59;;;3.62;81.86
54666;BME280;40566;50.006;36.180;2022-12-22T19:45:26;99875.44;;;3.64;81.82
54666;BME280;40566;50.006;36.180;2022-12-22T19:50:29;99880.56;;;3.64;82.02
54666;BME280;40566;50.006;36.180;2022-12-22T19:55:31;99883.97;;;3.63;81.96
54666;BME280;40566;50.006;36.180;2022-12-22T20:00:33;99888.22;;;3.59;81.90
54666;BME280;40566;50.006;36.180;2022-12-22T20:05:34;99880.56;;;3.57;82.00
54666;BME280;40566;50.006;36.180;2022-12-22T20:10:36;99886.53;;;3.63;82.05
54666;BME280;40566;50.006;36.180;2022-12-22T20:15:38;99889.06;;;3.61;81.85
54666;BME280;40566;50.006;36.180;2022-12-22T20:20:39;99901.00;;;3.61;81.98
54666;BME280;40566;50.006;36.180;2022-12-22T20:25:42;99895.03;;;3.58;82.14
54666;BME280;40566;50.006;36.180;2022-12-22T20:30:45;99891.63;;;3.56;81.95
54666;BME280;40566;50.006;36.180;2022-12-22T20:35:47;99884.78;;;3.57;82.03
54666;BME280;40566;50.006;36.180;2022-12-22T20:40:49;99884.81;;;3.58;82.09
54666;BME280;40566;50.006;36.180;2022-12-22T20:45:52;99873.72;;;3.56;82.02
54666;BME280;40566;50.006;36.180;2022-12-22T20:50:54;99884.81;;;3.54;82.19
54666;BME280;40566;50.006;36.180;2022-12-22T20:55:55;99871.13;;;3.49;82.20
54666;BME280;40566;50.006;36.180;2022-12-22T21:00:58;99861.78;;;3.48;82.24
54666;BME280;40566;50.006;36.180;2022-12-22T21:06:11;99866.03;;;3.49;82.08
54666;BME280;40566;50.006;36.180;2022-12-22T21:11:20;99867.72;;;3.51;82.33
54666;BME280;40566;50.006;36.180;2022-12-22T21:16:22;99864.34;;;3.54;82.11
54666;BME280;40566;50.006;36.180;2022-12-22T21:21:25;99863.47;;;3.53;81.86
54666;BME280;40566;50.006;36.180;2022-12-22T21:26:34;99854.13;;;3.55;81.88
54666;BME280;40566;50.006;36.180;2022-12-22T21:31:36;99857.50;;;3.53;82.21
54666;BME280;40566;50.006;36.180;2022-12-22T21:36:37;99842.16;;;3.53;81.90
54666;BME280;40566;50.006;36.180;2022-12-22T21:41:38;99848.13;;;3.50;82.05
54666;BME280;40566;50.006;36.180;2022-12-22T21:46:58;99851.53;;;3.49;82.23
54666;BME280;40566;50.006;36.180;2022-12-22T21:51:59;99849.00;;;3.54;82.21
54666;BME280;40566;50.006;36.180;2022-12-22T21:56:59;99851.56;;;3.55;82.04
54666;BME280;40566;50.006;36.180;2022-12-22T22:02:00;99859.25;;;3.60;82.07
54666;BME280;40566;50.006;36.180;2022-12-22T22:07:00;99858.41;;;3.64;82.04
54666;BME280;40566;50.006;36.180;2022-12-22T22:12:01;99855.00;;;3.64;82.00
54666;BME280;40566;50.006;36.180;2022-12-22T22:17:20;99849.00;;;3.63;81.96
54666;BME280;40566;50.006;36.180;2022-12-22T22:22:21;99856.69;;;3.65;82.17
54666;BME280;40566;50.006;36.180;2022-12-22T22:27:22;99846.47;;;3.66;82.10
54666;BME280;40566;50.006;36.180;2022-12-22T22:32:22;99849.03;;;3.62;82.23
54666;BME280;40566;50.006;36.180;2022-12-22T22:37:26;99837.91;;;3.56;82.09
54666;BME280;40566;50.006;36.180;2022-12-22T22:42:26;99833.66;;;3.58;82.28
54666;BME280;40566;50.006;36.180;2022-12-22T22:47:27;99828.53;;;3.54;82.37
54666;BME280;40566;50.006;36.180;2022-12-22T22:52:27;99835.34;;;3.53;82.31
54666;BME280;40566;50.006;36.180;2022-12-22T22:57:28;99838.75;;;3.48;82.60
54666;BME280;40566;50.006;36.180;2022-12-22T23:02:29;99822.56;;;3.44;82.46
54666;BME280;40566;50.006;36.180;2022-12-22T23:07:30;99834.50;;;3.44;82.58
54666;BME280;40566;50.006;36.180;2022-12-22T23:12:30;99831.91;;;3.39;82.76
54666;BME280;40566;50.006;36.180;2022-12-22T23:17:31;99832.75;;;3.35;82.80
54666;BME280;40566;50.006;36.180;2022-12-22T23:22:32;99833.59;;;3.32;82.86
54666;BME280;40566;50.006;36.180;2022-12-22T23:27:32;99824.22;;;3.33;82.81
54666;BME280;40566;50.006;36.180;2022-12-22T23:32:33;99825.91;;;3.31;82.89
54666;BME280;40566;50.006;36.180;2022-12-22T23:37:33;99825.91;;;3.29;82.93
54666;BME280;40566;50.006;36.180;2022-12-22T23:42:34;99829.34;;;3.30;83.08
54666;BME280;40566;50.006;36.180;2022-12-22T23:47:35;99819.97;;;3.32;82.96
54666;BME280;40566;50.006;36.180;2022-12-22T23:52:35;99824.25;;;3.36;82.98
54666;BME280;40566;50.006;36.180;2022-12-22T23:57:36;99817.41;;;3.35;82.79
